sensor_id;sensor_type;location;lat;lon;timestamp;P1;durP1;ratioP1;P2;durP2;ratioP2
21550;SDS011;10936;49.836;7.078;2022-08-21T06:01:49;9.43;;;3.63;;
21550;SDS011;10936;49.836;7.078;2022-08-21T06:04:17;8.37;;;3.67;;
21550;SDS011;10936;49.836;7.078;2022-08-21T06:06:43;7.47;;;3.70;;
21550;SDS011;10936;49.836;7.078;2022-08-21T06:09:08;7.40;;;3.90;;
21550;SDS011;10936;49.836;7.078;2022-08-21T06:11:34;7.10;;;3.73;;
21550;SDS011;10936;49.836;7.078;2022-08-21T06:14:00;8.70;;;3.47;;
21550;SDS011;10936;49.836;7.078;2022-08-21T06:16:26;6.37;;;3.40;;
21550;SDS011;10936;49.836;7.078;2022-08-21T06:18:52;6.47;;;3.50;;
21550;SDS011;10936;49.836;7.078;2022-08-21T06:21:18;7.47;;;3.70;;
21550;SDS011;10936;49.836;7.078;2022-08-21T06:23:43;10.13;;;4.10;;
21550;SDS011;10936;49.836;7.078;2022-08-21T06:26:10;11.23;;;3.50;;
21550;SDS011;10936;49.836;7.078;2022-08-21T06:28:37;9.63;;;4.27;;
21550;SDS011;10936;49.836;7.078;2022-08-21T06:31:38;8.43;;;3.57;;
21550;SDS011;10936;49.836;7.078;2022-08-21T06:33:56;5.63;;;2.90;;
21550;SDS011;10936;49.836;7.078;2022-08-21T06:36:22;9.53;;;3.67;;
21550;SDS011;10936;49.836;7.078;2022-08-21T06:38:49;11.50;;;3.50;;
21550;SDS011;10936;49.836;7.078;2022-08-21T06:41:14;7.43;;;3.30;;
21550;SDS011;10936;49.836;7.078;2022-08-21T06:43:40;7.90;;;3.37;;
21550;SDS011;10936;49.836;7.078;2022-08-21T06:46:06;6.87;;;3.60;;
21550;SDS011;10936;49.836;7.078;2022-08-21T06:48:32;7.53;;;3.30;;
21550;SDS011;10936;49.836;7.078;2022-08-21T06:50:59;5.77;;;3.20;;
21550;SDS011;10936;49.836;7.078;2022-08-21T06:53:25;11.63;;;3.47;;
21550;SDS011;10936;49.836;7.078;2022-08-21T06:55:51;7.60;;;3.70;;
21550;SDS011;10936;49.836;7.078;2022-08-21T06:58:17;7.10;;;3.63;;
21550;SDS011;10936;49.836;7.078;2022-08-21T07:00:45;10.73;;;3.80;;
21550;SDS011;10936;49.836;7.078;2022-08-21T07:03:33;14.23;;;3.30;;
21550;SDS011;10936;49.836;7.078;2022-08-21T07:06:06;9.97;;;3.90;;
21550;SDS011;10936;49.836;7.078;2022-08-21T07:08:34;7.23;;;3.30;;
21550;SDS011;10936;49.836;7.078;2022-08-21T07:11:01;7.10;;;2.90;;
21550;SDS011;10936;49.836;7.078;2022-08-21T07:13:29;8.33;;;3.57;;
21550;SDS011;10936;49.836;7.078;2022-08-21T07:15:55;7.10;;;3.67;;
21550;SDS011;10936;49.836;7.078;2022-08-21T07:18:21;6.43;;;3.20;;
21550;SDS011;10936;49.836;7.078;2022-08-21T07:20:46;7.63;;;3.17;;
21550;SDS011;10936;49.836;7.078;2022-08-21T07:23:23;9.30;;;3.43;;
21550;SDS011;10936;49.836;7.078;2022-08-21T07:25:52;5.73;;;3.50;;
21550;SDS011;10936;49.836;7.078;2022-08-21T07:28:18;8.37;;;3.27;;
21550;SDS011;10936;49.836;7.078;2022-08-21T07:30:44;5.33;;;3.03;;
21550;SDS011;10936;49.836;7.078;2022-08-21T07:33:10;7.50;;;3.40;;
21550;SDS011;10936;49.836;7.078;2022-08-21T07:35:37;9.70;;;3.87;;
21550;SDS011;10936;49.836;7.078;2022-08-21T07:38:03;7.53;;;3.60;;
21550;SDS011;10936;49.836;7.078;2022-08-21T07:40:29;5.67;;;3.03;;
21550;SDS011;10936;49.836;7.078;2022-08-21T07:42:54;6.27;;;3.20;;
21550;SDS011;10936;49.836;7.078;2022-08-21T07:45:21;7.10;;;3.23;;
21550;SDS011;10936;49.836;7.078;2022-08-21T07:47:49;6.00;;;2.87;;
21550;SDS011;10936;49.836;7.078;2022-08-21T07:50:16;7.50;;;3.53;;
21550;SDS011;10936;49.836;7.078;2022-08-21T07:52:43;6.57;;;3.23;;
21550;SDS011;10936;49.836;7.078;2022-08-21T07:55:10;5.43;;;2.93;;
21550;SDS011;10936;49.836;7.078;2022-08-21T07:57:38;8.37;;;3.07;;
21550;SDS011;10936;49.836;7.078;2022-08-21T08:00:05;6.20;;;3.10;;
21550;SDS011;10936;49.836;7.078;2022-08-21T08:02:33;7.60;;;3.33;;
21550;SDS011;10936;49.836;7.078;2022-08-21T08:04:59;6.10;;;3.10;;
21550;SDS011;10936;49.836;7.078;2022-08-21T08:07:26;8.17;;;2.97;;
21550;SDS011;10936;49.836;7.078;2022-08-21T08:09:52;6.87;;;2.80;;
21550;SDS011;10936;49.836;7.078;2022-08-21T08:12:18;6.00;;;2.80;;
21550;SDS011;10936;49.836;7.078;2022-08-21T08:14:45;4.70;;;2.73;;
21550;SDS011;10936;49.836;7.078;2022-08-21T08:17:10;9.57;;;3.50;;
21550;SDS011;10936;49.836;7.078;2022-08-21T08:19:38;6.03;;;2.90;;
21550;SDS011;10936;49.836;7.078;2022-08-21T08:22:14;7.43;;;2.77;;
21550;SDS011;10936;49.836;7.078;2022-08-21T08:24:41;5.50;;;3.10;;
21550;SDS011;10936;49.836;7.078;2022-08-21T08:27:07;6.60;;;2.83;;
21550;SDS011;10936;49.836;7.078;2022-08-21T08:29:33;4.78;;;2.35;;
21550;SDS011;10936;49.836;7.078;2022-08-21T08:31:58;5.88;;;2.63;;
21550;SDS011;10936;49.836;7.078;2022-08-21T08:34:24;6.93;;;2.40;;
21550;SDS011;10936;49.836;7.078;2022-08-21T08:36:50;7.70;;;2.77;;
21550;SDS011;10936;49.836;7.078;2022-08-21T08:39:15;9.07;;;2.65;;
21550;SDS011;10936;49.836;7.078;2022-08-21T08:41:41;7.35;;;2.78;;
21550;SDS011;10936;49.836;7.078;2022-08-21T08:44:09;10.07;;;2.88;;
21550;SDS011;10936;49.836;7.078;2022-08-21T08:46:46;7.35;;;3.08;;
21550;SDS011;10936;49.836;7.078;2022-08-21T08:49:15;6.35;;;2.70;;
21550;SDS011;10936;49.836;7.078;2022-08-21T08:54:37;6.80;;;2.50;;
21550;SDS011;10936;49.836;7.078;2022-08-21T08:57:10;6.45;;;2.55;;
21550;SDS011;10936;49.836;7.078;2022-08-21T08:59:41;5.63;;;2.83;;
21550;SDS011;10936;49.836;7.078;2022-08-21T09:02:11;8.30;;;2.60;;
21550;SDS011;10936;49.836;7.078;2022-08-21T09:04:37;5.38;;;2.72;;
21550;SDS011;10936;49.836;7.078;2022-08-21T09:10:21;5.65;;;2.63;;
21550;SDS011;10936;49.836;7.078;2022-08-21T09:15:47;6.22;;;2.53;;
21550;SDS011;10936;49.836;7.078;2022-08-21T09:21:41;9.60;;;2.47;;
21550;SDS011;10936;49.836;7.078;2022-08-21T09:27:05;6.50;;;2.72;;
21550;SDS011;10936;49.836;7.078;2022-08-21T09:29:35;7.75;;;2.80;;
21550;SDS011;10936;49.836;7.078;2022-08-21T09:32:04;5.15;;;2.50;;
21550;SDS011;10936;49.836;7.078;2022-08-21T09:34:54;4.50;;;2.13;;
21550;SDS011;10936;49.836;7.078;2022-08-21T09:37:49;5.93;;;2.55;;
21550;SDS011;10936;49.836;7.078;2022-08-21T09:40:23;10.00;;;2.55;;
21550;SDS011;10936;49.836;7.078;2022-08-21T09:45:39;5.85;;;2.67;;
21550;SDS011;10936;49.836;7.078;2022-08-21T09:48:10;4.28;;;2.17;;
21550;SDS011;10936;49.836;7.078;2022-08-21T09:50:43;5.40;;;2.40;;
21550;SDS011;10936;49.836;7.078;2022-08-21T09:55:54;11.05;;;2.67;;
21550;SDS011;10936;49.836;7.078;2022-08-21T09:58:45;5.55;;;2.78;;
21550;SDS011;10936;49.836;7.078;2022-08-21T10:01:14;4.28;;;2.13;;
21550;SDS011;10936;49.836;7.078;2022-08-21T10:04:11;5.80;;;2.42;;
21550;SDS011;10936;49.836;7.078;2022-08-21T10:06:36;6.13;;;2.75;;
21550;SDS011;10936;49.836;7.078;2022-08-21T10:09:13;7.35;;;2.38;;
21550;SDS011;10936;49.836;7.078;2022-08-21T10:11:41;5.60;;;2.53;;
21550;SDS011;10936;49.836;7.078;2022-08-21T10:19:38;4.38;;;2.33;;
21550;SDS011;10936;49.836;7.078;2022-08-21T10:24:58;8.40;;;2.35;;
21550;SDS011;10936;49.836;7.078;2022-08-21T10:27:56;6.63;;;2.65;;
21550;SDS011;10936;49.836;7.078;2022-08-21T10:30:30;4.70;;;2.25;;
21550;SDS011;10936;49.836;7.078;2022-08-21T10:33:02;6.47;;;2.30;;
21550;SDS011;10936;49.836;7.078;2022-08-21T10:35:33;4.50;;;2.50;;
21550;SDS011;10936;49.836;7.078;2022-08-21T10:38:27;6.60;;;2.70;;
21550;SDS011;10936;49.836;7.078;2022-08-21T10:41:28;4.57;;;2.03;;
21550;SDS011;10936;49.836;7.078;2022-08-21T10:46:49;8.60;;;2.53;;
21550;SDS011;10936;49.836;7.078;2022-08-21T10:52:17;5.25;;;2.20;;
21550;SDS011;10936;49.836;7.078;2022-08-21T10:54:52;7.18;;;2.35;;
21550;SDS011;10936;49.836;7.078;2022-08-21T10:57:34;6.25;;;2.28;;
21550;SDS011;10936;49.836;7.078;2022-08-21T11:00:33;6.07;;;2.42;;
21550;SDS011;10936;49.836;7.078;2022-08-21T11:03:23;7.47;;;2.40;;
21550;SDS011;10936;49.836;7.078;2022-08-21T11:06:13;5.90;;;2.85;;
21550;SDS011;10936;49.836;7.078;2022-08-21T11:08:46;4.50;;;2.20;;
21550;SDS011;10936;49.836;7.078;2022-08-21T11:11:27;3.78;;;2.10;;
21550;SDS011;10936;49.836;7.078;2022-08-21T11:14:00;7.63;;;2.80;;
21550;SDS011;10936;49.836;7.078;2022-08-21T11:16:37;5.65;;;2.30;;
21550;SDS011;10936;49.836;7.078;2022-08-21T11:19:22;4.68;;;2.50;;
21550;SDS011;10936;49.836;7.078;2022-08-21T11:22:02;5.35;;;2.13;;
21550;SDS011;10936;49.836;7.078;2022-08-21T11:24:42;5.63;;;2.05;;
21550;SDS011;10936;49.836;7.078;2022-08-21T11:27:33;3.72;;;2.33;;
21550;SDS011;10936;49.836;7.078;2022-08-21T11:30:05;4.13;;;2.25;;
21550;SDS011;10936;49.836;7.078;2022-08-21T11:41:47;3.90;;;2.13;;
21550;SDS011;10936;49.836;7.078;2022-08-21T11:47:16;4.88;;;2.05;;
21550;SDS011;10936;49.836;7.078;2022-08-21T11:52:47;3.60;;;2.20;;
21550;SDS011;10936;49.836;7.078;2022-08-21T11:57:58;8.07;;;2.78;;
21550;SDS011;10936;49.836;7.078;2022-08-21T12:00:52;8.43;;;2.88;;
21550;SDS011;10936;49.836;7.078;2022-08-21T12:06:06;4.60;;;2.03;;
21550;SDS011;10936;49.836;7.078;2022-08-21T12:13:35;3.58;;;1.83;;
21550;SDS011;10936;49.836;7.078;2022-08-21T12:16:09;7.53;;;2.63;;
21550;SDS011;10936;49.836;7.078;2022-08-21T12:18:40;4.20;;;1.85;;
21550;SDS011;10936;49.836;7.078;2022-08-21T12:26:26;3.78;;;2.22;;
21550;SDS011;10936;49.836;7.078;2022-08-21T12:29:04;4.75;;;2.00;;
21550;SDS011;10936;49.836;7.078;2022-08-21T12:31:35;5.28;;;2.28;;
21550;SDS011;10936;49.836;7.078;2022-08-21T12:34:11;5.70;;;2.30;;
21550;SDS011;10936;49.836;7.078;2022-08-21T12:36:43;5.00;;;2.15;;
21550;SDS011;10936;49.836;7.078;2022-08-21T12:39:14;2.95;;;1.80;;
21550;SDS011;10936;49.836;7.078;2022-08-21T12:42:11;3.90;;;1.67;;
21550;SDS011;10936;49.836;7.078;2022-08-21T12:44:46;3.17;;;1.80;;
21550;SDS011;10936;49.836;7.078;2022-08-21T12:47:50;5.50;;;2.40;;
21550;SDS011;10936;49.836;7.078;2022-08-21T12:50:26;3.85;;;1.77;;
21550;SDS011;10936;49.836;7.078;2022-08-21T12:55:44;5.75;;;2.10;;
21550;SDS011;10936;49.836;7.078;2022-08-21T12:58:20;5.45;;;2.30;;
21550;SDS011;10936;49.836;7.078;2022-08-21T13:00:49;3.88;;;1.85;;
21550;SDS011;10936;49.836;7.078;2022-08-21T13:03:17;3.95;;;2.17;;
21550;SDS011;10936;49.836;7.078;2022-08-21T13:05:43;4.97;;;2.13;;
21550;SDS011;10936;49.836;7.078;2022-08-21T13:08:09;4.95;;;1.90;;
21550;SDS011;10936;49.836;7.078;2022-08-21T13:10:37;4.32;;;2.03;;
21550;SDS011;10936;49.836;7.078;2022-08-21T13:13:07;2.78;;;1.70;;
21550;SDS011;10936;49.836;7.078;2022-08-21T13:15:41;4.38;;;1.90;;
21550;SDS011;10936;49.836;7.078;2022-08-21T13:18:07;4.82;;;1.92;;
21550;SDS011;10936;49.836;7.078;2022-08-21T13:20:37;4.60;;;1.95;;
21550;SDS011;10936;49.836;7.078;2022-08-21T13:23:07;2.60;;;1.95;;
21550;SDS011;10936;49.836;7.078;2022-08-21T13:25:53;10.75;;;2.30;;
21550;SDS011;10936;49.836;7.078;2022-08-21T13:28:20;3.40;;;2.13;;
21550;SDS011;10936;49.836;7.078;2022-08-21T13:30:55;4.55;;;1.80;;
21550;SDS011;10936;49.836;7.078;2022-08-21T13:33:22;5.57;;;1.67;;
21550;SDS011;10936;49.836;7.078;2022-08-21T13:38:23;3.78;;;1.92;;
21550;SDS011;10936;49.836;7.078;2022-08-21T13:40:55;5.00;;;1.77;;
21550;SDS011;10936;49.836;7.078;2022-08-21T13:43:26;5.70;;;1.80;;
21550;SDS011;10936;49.836;7.078;2022-08-21T13:45:55;4.00;;;1.70;;
21550;SDS011;10936;49.836;7.078;2022-08-21T13:48:22;5.28;;;2.22;;
21550;SDS011;10936;49.836;7.078;2022-08-21T13:50:51;4.47;;;2.08;;
21550;SDS011;10936;49.836;7.078;2022-08-21T13:53:28;4.13;;;1.80;;
21550;SDS011;10936;49.836;7.078;2022-08-21T13:55:54;4.45;;;1.90;;
21550;SDS011;10936;49.836;7.078;2022-08-21T14:00:56;4.68;;;1.80;;
21550;SDS011;10936;49.836;7.078;2022-08-21T14:03:42;3.85;;;1.90;;
21550;SDS011;10936;49.836;7.078;2022-08-21T14:06:34;3.97;;;2.13;;
21550;SDS011;10936;49.836;7.078;2022-08-21T14:09:07;2.45;;;1.60;;
21550;SDS011;10936;49.836;7.078;2022-08-21T14:11:35;4.60;;;1.58;;
21550;SDS011;10936;49.836;7.078;2022-08-21T14:14:04;3.05;;;1.95;;
21550;SDS011;10936;49.836;7.078;2022-08-21T14:16:58;3.17;;;1.98;;
21550;SDS011;10936;49.836;7.078;2022-08-21T14:19:27;2.53;;;1.63;;
21550;SDS011;10936;49.836;7.078;2022-08-21T14:22:12;3.55;;;1.85;;
21550;SDS011;10936;49.836;7.078;2022-08-21T14:25:00;5.63;;;2.35;;
21550;SDS011;10936;49.836;7.078;2022-08-21T14:27:31;4.97;;;2.03;;
21550;SDS011;10936;49.836;7.078;2022-08-21T14:30:03;3.17;;;2.00;;
21550;SDS011;10936;49.836;7.078;2022-08-21T14:32:38;3.17;;;1.70;;
21550;SDS011;10936;49.836;7.078;2022-08-21T14:35:06;5.63;;;1.95;;
21550;SDS011;10936;49.836;7.078;2022-08-21T14:37:32;4.35;;;1.83;;
21550;SDS011;10936;49.836;7.078;2022-08-21T14:39:58;3.97;;;1.85;;
21550;SDS011;10936;49.836;7.078;2022-08-21T14:42:24;4.00;;;1.58;;
21550;SDS011;10936;49.836;7.078;2022-08-21T14:44:50;3.22;;;1.98;;
21550;SDS011;10936;49.836;7.078;2022-08-21T14:47:17;3.97;;;1.80;;
21550;SDS011;10936;49.836;7.078;2022-08-21T14:49:43;3.13;;;1.75;;
21550;SDS011;10936;49.836;7.078;2022-08-21T14:52:08;3.40;;;1.70;;
21550;SDS011;10936;49.836;7.078;2022-08-21T14:54:34;4.13;;;1.77;;
21550;SDS011;10936;49.836;7.078;2022-08-21T14:57:01;2.83;;;1.52;;
21550;SDS011;10936;49.836;7.078;2022-08-21T14:59:30;3.13;;;1.80;;
21550;SDS011;10936;49.836;7.078;2022-08-21T15:01:57;4.20;;;1.92;;
21550;SDS011;10936;49.836;7.078;2022-08-21T15:04:23;5.22;;;2.30;;
21550;SDS011;10936;49.836;7.078;2022-08-21T15:06:49;3.33;;;2.03;;
21550;SDS011;10936;49.836;7.078;2022-08-21T15:09:15;4.13;;;1.92;;
21550;SDS011;10936;49.836;7.078;2022-08-21T15:11:41;5.43;;;2.03;;
21550;SDS011;10936;49.836;7.078;2022-08-21T15:14:07;4.10;;;2.00;;
21550;SDS011;10936;49.836;7.078;2022-08-21T15:16:35;3.83;;;1.90;;
21550;SDS011;10936;49.836;7.078;2022-08-21T15:19:01;3.17;;;1.58;;
21550;SDS011;10936;49.836;7.078;2022-08-21T15:21:27;3.88;;;2.03;;
21550;SDS011;10936;49.836;7.078;2022-08-21T15:23:53;2.53;;;1.70;;
21550;SDS011;10936;49.836;7.078;2022-08-21T15:26:19;2.95;;;1.80;;
21550;SDS011;10936;49.836;7.078;2022-08-21T15:28:46;3.15;;;1.52;;
21550;SDS011;10936;49.836;7.078;2022-08-21T15:31:12;3.15;;;1.85;;
21550;SDS011;10936;49.836;7.078;2022-08-21T15:33:38;3.55;;;1.65;;
21550;SDS011;10936;49.836;7.078;2022-08-21T15:36:03;2.92;;;1.80;;
21550;SDS011;10936;49.836;7.078;2022-08-21T15:38:29;4.60;;;2.05;;
21550;SDS011;10936;49.836;7.078;2022-08-21T15:40:55;2.53;;;1.60;;
21550;SDS011;10936;49.836;7.078;2022-08-21T15:43:25;2.78;;;1.55;;
21550;SDS011;10936;49.836;7.078;2022-08-21T15:45:59;3.83;;;1.73;;
21550;SDS011;10936;49.836;7.078;2022-08-21T15:48:25;3.40;;;1.80;;
21550;SDS011;10936;49.836;7.078;2022-08-21T15:50:51;3.05;;;2.03;;
21550;SDS011;10936;49.836;7.078;2022-08-21T15:53:17;3.20;;;1.65;;
21550;SDS011;10936;49.836;7.078;2022-08-21T15:55:42;2.80;;;1.92;;
21550;SDS011;10936;49.836;7.078;2022-08-21T15:58:11;2.53;;;1.63;;
21550;SDS011;10936;49.836;7.078;2022-08-21T16:00:39;2.75;;;2.00;;
21550;SDS011;10936;49.836;7.078;2022-08-21T16:03:08;5.75;;;1.75;;
21550;SDS011;10936;49.836;7.078;2022-08-21T16:05:37;3.42;;;1.80;;
21550;SDS011;10936;49.836;7.078;2022-08-21T16:08:02;2.92;;;1.50;;
21550;SDS011;10936;49.836;7.078;2022-08-21T16:10:28;5.82;;;1.70;;
21550;SDS011;10936;49.836;7.078;2022-08-21T16:12:56;2.42;;;1.70;;
21550;SDS011;10936;49.836;7.078;2022-08-21T16:15:24;2.42;;;1.50;;
21550;SDS011;10936;49.836;7.078;2022-08-21T16:17:51;3.53;;;1.67;;
21550;SDS011;10936;49.836;7.078;2022-08-21T16:20:19;3.30;;;2.00;;
21550;SDS011;10936;49.836;7.078;2022-08-21T16:22:48;2.40;;;1.60;;
21550;SDS011;10936;49.836;7.078;2022-08-21T16:25:14;4.00;;;1.73;;
21550;SDS011;10936;49.836;7.078;2022-08-21T16:27:42;4.10;;;1.80;;
21550;SDS011;10936;49.836;7.078;2022-08-21T16:30:12;2.78;;;1.70;;
21550;SDS011;10936;49.836;7.078;2022-08-21T16:32:39;3.78;;;1.88;;
21550;SDS011;10936;49.836;7.078;2022-08-21T16:35:05;4.20;;;1.92;;
21550;SDS011;10936;49.836;7.078;2022-08-21T16:37:31;3.22;;;1.77;;
21550;SDS011;10936;49.836;7.078;2022-08-21T16:39:57;2.78;;;1.65;;
21550;SDS011;10936;49.836;7.078;2022-08-21T16:42:23;3.55;;;1.80;;
21550;SDS011;10936;49.836;7.078;2022-08-21T16:44:50;2.22;;;1.45;;
21550;SDS011;10936;49.836;7.078;2022-08-21T16:47:17;3.38;;;1.80;;
21550;SDS011;10936;49.836;7.078;2022-08-21T16:49:43;3.85;;;1.90;;
21550;SDS011;10936;49.836;7.078;2022-08-21T16:52:10;3.75;;;1.60;;
21550;SDS011;10936;49.836;7.078;2022-08-21T16:54:36;2.65;;;1.50;;
21550;SDS011;10936;49.836;7.078;2022-08-21T16:57:02;2.95;;;1.67;;
21550;SDS011;10936;49.836;7.078;2022-08-21T16:59:28;2.90;;;1.65;;
21550;SDS011;10936;49.836;7.078;2022-08-21T17:01:53;2.75;;;1.73;;
21550;SDS011;10936;49.836;7.078;2022-08-21T17:04:19;3.83;;;2.13;;
21550;SDS011;10936;49.836;7.078;2022-08-21T17:06:46;2.53;;;1.83;;
21550;SDS011;10936;49.836;7.078;2022-08-21T17:09:12;2.38;;;1.80;;
21550;SDS011;10936;49.836;7.078;2022-08-21T17:11:41;2.92;;;1.83;;
21550;SDS011;10936;49.836;7.078;2022-08-21T17:14:11;3.80;;;1.75;;
21550;SDS011;10936;49.836;7.078;2022-08-21T17:16:40;3.83;;;2.00;;
21550;SDS011;10936;49.836;7.078;2022-08-21T17:19:09;3.35;;;1.85;;
21550;SDS011;10936;49.836;7.078;2022-08-21T17:21:36;3.08;;;2.00;;
21550;SDS011;10936;49.836;7.078;2022-08-21T17:24:02;8.10;;;1.92;;
21550;SDS011;10936;49.836;7.078;2022-08-21T17:26:28;6.45;;;2.15;;
21550;SDS011;10936;49.836;7.078;2022-08-21T17:28:54;2.90;;;1.55;;
21550;SDS011;10936;49.836;7.078;2022-08-21T17:31:20;7.95;;;1.90;;
21550;SDS011;10936;49.836;7.078;2022-08-21T17:33:47;4.30;;;2.13;;
21550;SDS011;10936;49.836;7.078;2022-08-21T17:36:17;7.50;;;2.58;;
21550;SDS011;10936;49.836;7.078;2022-08-21T17:38:44;3.33;;;2.00;;
21550;SDS011;10936;49.836;7.078;2022-08-21T17:41:10;3.50;;;2.33;;
21550;SDS011;10936;49.836;7.078;2022-08-21T17:43:37;3.88;;;2.10;;
21550;SDS011;10936;49.836;7.078;2022-08-21T17:46:04;8.93;;;1.95;;
21550;SDS011;10936;49.836;7.078;2022-08-21T17:48:31;3.50;;;1.98;;
21550;SDS011;10936;49.836;7.078;2022-08-21T17:50:58;4.45;;;2.30;;
21550;SDS011;10936;49.836;7.078;2022-08-21T17:53:23;8.20;;;1.80;;
21550;SDS011;10936;49.836;7.078;2022-08-21T17:55:49;4.53;;;1.73;;
21550;SDS011;10936;49.836;7.078;2022-08-21T17:58:15;4.50;;;1.80;;
21550;SDS011;10936;49.836;7.078;2022-08-21T18:00:42;4.93;;;2.10;;
21550;SDS011;10936;49.836;7.078;2022-08-21T18:03:10;3.47;;;2.22;;
21550;SDS011;10936;49.836;7.078;2022-08-21T18:05:41;3.00;;;1.75;;
21550;SDS011;10936;49.836;7.078;2022-08-21T18:08:09;4.43;;;1.92;;
21550;SDS011;10936;49.836;7.078;2022-08-21T18:10:35;3.85;;;2.15;;
21550;SDS011;10936;49.836;7.078;2022-08-21T18:13:04;7.32;;;2.42;;
21550;SDS011;10936;49.836;7.078;2022-08-21T18:15:32;5.15;;;2.03;;
21550;SDS011;10936;49.836;7.078;2022-08-21T18:17:58;4.07;;;2.20;;
21550;SDS011;10936;49.836;7.078;2022-08-21T18:20:25;3.35;;;1.90;;
21550;SDS011;10936;49.836;7.078;2022-08-21T18:22:52;4.53;;;2.00;;
21550;SDS011;10936;49.836;7.078;2022-08-21T18:25:17;4.97;;;2.58;;
21550;SDS011;10936;49.836;7.078;2022-08-21T18:27:44;2.65;;;1.75;;
21550;SDS011;10936;49.836;7.078;2022-08-21T18:30:13;4.88;;;2.20;;
21550;SDS011;10936;49.836;7.078;2022-08-21T18:32:44;3.08;;;2.10;;
21550;SDS011;10936;49.836;7.078;2022-08-21T18:35:09;3.42;;;1.90;;
21550;SDS011;10936;49.836;7.078;2022-08-21T18:37:37;4.43;;;2.17;;
21550;SDS011;10936;49.836;7.078;2022-08-21T18:40:03;4.50;;;2.03;;
21550;SDS011;10936;49.836;7.078;2022-08-21T18:42:36;7.40;;;2.30;;
21550;SDS011;10936;49.836;7.078;2022-08-21T18:45:08;4.13;;;2.30;;
21550;SDS011;10936;49.836;7.078;2022-08-21T18:47:47;3.97;;;2.00;;
21550;SDS011;10936;49.836;7.078;2022-08-21T18:50:16;3.47;;;1.83;;
21550;SDS011;10936;49.836;7.078;2022-08-21T18:52:43;4.75;;;2.00;;
21550;SDS011;10936;49.836;7.078;2022-08-21T18:55:10;4.28;;;2.25;;
21550;SDS011;10936;49.836;7.078;2022-08-21T18:57:37;4.15;;;2.15;;
21550;SDS011;10936;49.836;7.078;2022-08-21T19:00:10;2.10;;;1.90;;
21550;SDS011;10936;49.836;7.078;2022-08-21T19:02:42;4.38;;;1.77;;
21550;SDS011;10936;49.836;7.078;2022-08-21T19:05:08;2.88;;;1.70;;
21550;SDS011;10936;49.836;7.078;2022-08-21T19:07:36;4.28;;;1.98;;
21550;SDS011;10936;49.836;7.078;2022-08-21T19:10:03;6.88;;;2.10;;
21550;SDS011;10936;49.836;7.078;2022-08-21T19:12:30;5.47;;;2.20;;
21550;SDS011;10936;49.836;7.078;2022-08-21T19:14:57;3.58;;;2.20;;
21550;SDS011;10936;49.836;7.078;2022-08-21T19:17:23;4.40;;;2.28;;
21550;SDS011;10936;49.836;7.078;2022-08-21T19:19:49;5.30;;;1.90;;
21550;SDS011;10936;49.836;7.078;2022-08-21T19:22:16;3.72;;;2.00;;
21550;SDS011;10936;49.836;7.078;2022-08-21T19:24:42;3.17;;;2.10;;
21550;SDS011;10936;49.836;7.078;2022-08-21T19:27:08;3.78;;;1.80;;
21550;SDS011;10936;49.836;7.078;2022-08-21T19:29:36;2.58;;;1.65;;
21550;SDS011;10936;49.836;7.078;2022-08-21T19:32:03;2.95;;;2.10;;
21550;SDS011;10936;49.836;7.078;2022-08-21T19:34:30;3.22;;;2.08;;
21550;SDS011;10936;49.836;7.078;2022-08-21T19:36:57;5.72;;;2.80;;
21550;SDS011;10936;49.836;7.078;2022-08-21T19:39:24;2.55;;;1.60;;
21550;SDS011;10936;49.836;7.078;2022-08-21T19:41:53;5.97;;;1.77;;
21550;SDS011;10936;49.836;7.078;2022-08-21T19:44:24;4.53;;;1.67;;
21550;SDS011;10936;49.836;7.078;2022-08-21T19:46:52;4.20;;;2.03;;
21550;SDS011;10936;49.836;7.078;2022-08-21T19:49:22;3.58;;;1.80;;
21550;SDS011;10936;49.836;7.078;2022-08-21T19:51:51;3.70;;;1.75;;
21550;SDS011;10936;49.836;7.078;2022-08-21T19:54:18;3.78;;;1.80;;
21550;SDS011;10936;49.836;7.078;2022-08-21T19:56:48;4.85;;;1.58;;
21550;SDS011;10936;49.836;7.078;2022-08-21T19:59:16;4.45;;;1.60;;
21550;SDS011;10936;49.836;7.078;2022-08-21T20:01:43;3.50;;;1.67;;
21550;SDS011;10936;49.836;7.078;2022-08-21T20:04:10;4.68;;;1.85;;
21550;SDS011;10936;49.836;7.078;2022-08-21T20:06:35;3.40;;;1.70;;
21550;SDS011;10936;49.836;7.078;2022-08-21T20:09:02;4.38;;;1.73;;
21550;SDS011;10936;49.836;7.078;2022-08-21T20:11:30;3.83;;;1.60;;
21550;SDS011;10936;49.836;7.078;2022-08-21T20:14:01;3.97;;;1.85;;
21550;SDS011;10936;49.836;7.078;2022-08-21T20:16:27;4.07;;;1.63;;
21550;SDS011;10936;49.836;7.078;2022-08-21T20:18:54;2.42;;;1.52;;
21550;SDS011;10936;49.836;7.078;2022-08-21T20:21:20;4.30;;;1.73;;
21550;SDS011;10936;49.836;7.078;2022-08-21T20:23:46;4.82;;;2.05;;
21550;SDS011;10936;49.836;7.078;2022-08-21T20:26:12;5.15;;;1.73;;
21550;SDS011;10936;49.836;7.078;2022-08-21T20:28:38;4.13;;;1.60;;
21550;SDS011;10936;49.836;7.078;2022-08-21T20:31:04;3.75;;;1.92;;
21550;SDS011;10936;49.836;7.078;2022-08-21T20:33:30;3.72;;;1.77;;
21550;SDS011;10936;49.836;7.078;2022-08-21T20:35:56;6.47;;;1.52;;
21550;SDS011;10936;49.836;7.078;2022-08-21T20:38:22;4.15;;;1.63;;
21550;SDS011;10936;49.836;7.078;2022-08-21T20:40:49;3.50;;;1.67;;
21550;SDS011;10936;49.836;7.078;2022-08-21T20:43:16;4.47;;;1.80;;
21550;SDS011;10936;49.836;7.078;2022-08-21T20:45:43;4.38;;;1.77;;
21550;SDS011;10936;49.836;7.078;2022-08-21T20:48:11;8.25;;;2.00;;
21550;SDS011;10936;49.836;7.078;2022-08-21T20:50:48;3.80;;;1.50;;
21550;SDS011;10936;49.836;7.078;2022-08-21T20:53:27;4.80;;;2.05;;
21550;SDS011;10936;49.836;7.078;2022-08-21T20:56:08;3.22;;;1.58;;
21550;SDS011;10936;49.836;7.078;2022-08-21T20:58:54;4.32;;;1.50;;
21550;SDS011;10936;49.836;7.078;2022-08-21T21:01:24;4.57;;;1.90;;
21550;SDS011;10936;49.836;7.078;2022-08-21T21:04:04;5.68;;;1.85;;
21550;SDS011;10936;49.836;7.078;2022-08-21T21:06:50;6.45;;;1.77;;
21550;SDS011;10936;49.836;7.078;2022-08-21T21:09:20;4.30;;;1.60;;
21550;SDS011;10936;49.836;7.078;2022-08-21T21:12:15;3.63;;;1.58;;
21550;SDS011;10936;49.836;7.078;2022-08-21T21:14:50;2.65;;;1.40;;
21550;SDS011;10936;49.836;7.078;2022-08-21T21:17:22;4.53;;;1.60;;
21550;SDS011;10936;49.836;7.078;2022-08-21T21:19:59;4.53;;;1.70;;
21550;SDS011;10936;49.836;7.078;2022-08-21T21:22:32;2.97;;;1.50;;
21550;SDS011;10936;49.836;7.078;2022-08-21T21:25:09;3.97;;;1.70;;
21550;SDS011;10936;49.836;7.078;2022-08-21T21:27:51;3.78;;;1.52;;
